JAL799 RJAA-RPLL
Flight info
| Callsign | JAL799 |
|---|---|
| Flight time | N/A |
| Altitude | 38000 |
| Route | SAMUS Y84 BUBDO A590 MUPOB DCT KANDU DCT POLIO POLIO5R |
| Aircraft | A339/H-SADE1E2E3GHIJ3J5M1P2RWXY/LB2D1 |
Departure
| Time | N/A |
|---|---|
| Airport | Narita International Airport (RJAA) |
Arrival
| Time | 2026-05-07 11:02 |
|---|---|
| Airport | Ninoy Aquino International Airport (RPLL) |
| Time | Latitude | Longitude | Altitude | Speed | Heading |
|---|---|---|---|---|---|
| 2026-05-07 10:21 | 15.86499 | 123.23394 | 34735 ft | 474 kts | 216° |
| 2026-05-07 10:21 | 15.83907 | 123.21360 | 34489 ft | 474 kts | 216° |
| 2026-05-07 10:22 | 15.81285 | 123.19303 | 34242 ft | 475 kts | 216° |
| 2026-05-07 10:22 | 15.78645 | 123.17232 | 33992 ft | 476 kts | 216° |
| 2026-05-07 10:22 | 15.75971 | 123.15136 | 33740 ft | 477 kts | 216° |
| 2026-05-07 10:22 | 15.73360 | 123.13090 | 33495 ft | 477 kts | 216° |
| 2026-05-07 10:23 | 15.70693 | 123.11002 | 33244 ft | 479 kts | 216° |
| 2026-05-07 10:23 | 15.68054 | 123.08895 | 32994 ft | 480 kts | 218° |
| 2026-05-07 10:23 | 15.65567 | 123.06565 | 32744 ft | 482 kts | 224° |
| 2026-05-07 10:23 | 15.63338 | 123.04021 | 32497 ft | 484 kts | 230° |
| 2026-05-07 10:24 | 15.61313 | 123.01178 | 32245 ft | 486 kts | 236° |
| 2026-05-07 10:24 | 15.59577 | 122.98212 | 32001 ft | 488 kts | 240° |
| 2026-05-07 10:24 | 15.57885 | 122.95122 | 31749 ft | 490 kts | 240° |
| 2026-05-07 10:24 | 15.56237 | 122.92069 | 31502 ft | 491 kts | 240° |
| 2026-05-07 10:25 | 15.54554 | 122.88956 | 31251 ft | 493 kts | 240° |
| 2026-05-07 10:25 | 15.52873 | 122.85864 | 31002 ft | 494 kts | 240° |
| 2026-05-07 10:25 | 15.51166 | 122.82737 | 30751 ft | 495 kts | 240° |
| 2026-05-07 10:25 | 15.49482 | 122.79663 | 30504 ft | 496 kts | 240° |
| 2026-05-07 10:26 | 15.47763 | 122.76533 | 30253 ft | 496 kts | 240° |
| 2026-05-07 10:26 | 15.46075 | 122.73460 | 30007 ft | 496 kts | 240° |
| 2026-05-07 10:26 | 15.44362 | 122.70347 | 29759 ft | 496 kts | 240° |
| 2026-05-07 10:26 | 15.42665 | 122.67264 | 29511 ft | 494 kts | 240° |
| 2026-05-07 10:27 | 15.40949 | 122.64146 | 29259 ft | 492 kts | 241° |
| 2026-05-07 10:27 | 15.39276 | 122.61110 | 29013 ft | 490 kts | 241° |
| 2026-05-07 10:27 | 15.37577 | 122.58028 | 28762 ft | 489 kts | 241° |
| 2026-05-07 10:27 | 15.35890 | 122.54969 | 28511 ft | 487 kts | 241° |
| 2026-05-07 10:28 | 15.34235 | 122.51968 | 28265 ft | 485 kts | 241° |
| 2026-05-07 10:28 | 15.32563 | 122.48938 | 28016 ft | 483 kts | 241° |
| 2026-05-07 10:28 | 15.30893 | 122.45913 | 27765 ft | 481 kts | 241° |
| 2026-05-07 10:28 | 15.29237 | 122.42915 | 27516 ft | 479 kts | 241° |
| 2026-05-07 10:29 | 15.27590 | 122.39932 | 27267 ft | 477 kts | 241° |
| 2026-05-07 10:29 | 15.25944 | 122.36955 | 27018 ft | 475 kts | 241° |
| 2026-05-07 10:29 | 15.24330 | 122.34038 | 26615 ft | 468 kts | 241° |
| 2026-05-07 10:30 | 15.21175 | 122.28339 | 26051 ft | 439 kts | 242° |
| 2026-05-07 10:30 | 15.19677 | 122.25634 | 25688 ft | 421 kts | 242° |
| 2026-05-07 10:30 | 15.18245 | 122.23050 | 25210 ft | 409 kts | 242° |
| 2026-05-07 10:30 | 15.16842 | 122.20519 | 24578 ft | 402 kts | 242° |
| 2026-05-07 10:31 | 15.15459 | 122.18022 | 23870 ft | 397 kts | 242° |
| 2026-05-07 10:31 | 15.14100 | 122.15569 | 23143 ft | 392 kts | 242° |
| 2026-05-07 10:31 | 15.12761 | 122.13152 | 22465 ft | 386 kts | 243° |
| 2026-05-07 10:31 | 15.11441 | 122.10772 | 21808 ft | 379 kts | 243° |
| 2026-05-07 10:32 | 15.10135 | 122.08418 | 21153 ft | 373 kts | 243° |
| 2026-05-07 10:32 | 15.08859 | 122.06119 | 20514 ft | 367 kts | 243° |
| 2026-05-07 10:32 | 15.07605 | 122.03858 | 19883 ft | 361 kts | 243° |
| 2026-05-07 10:32 | 15.06350 | 122.01597 | 19246 ft | 356 kts | 243° |
| 2026-05-07 10:33 | 15.05137 | 121.99412 | 18629 ft | 350 kts | 243° |
| 2026-05-07 10:33 | 15.03936 | 121.97250 | 18017 ft | 345 kts | 243° |
| 2026-05-07 10:33 | 15.02751 | 121.95117 | 17415 ft | 339 kts | 243° |
| 2026-05-07 10:33 | 15.01691 | 121.92970 | 16817 ft | 332 kts | 251° |
| 2026-05-07 10:34 | 15.00980 | 121.90723 | 16233 ft | 323 kts | 261° |
| 2026-05-07 10:34 | 15.00636 | 121.88479 | 15793 ft | 311 kts | 268° |
| 2026-05-07 10:34 | 15.00491 | 121.86254 | 15442 ft | 309 kts | 270° |
| 2026-05-07 10:34 | 15.00380 | 121.84064 | 15308 ft | 302 kts | 270° |
| 2026-05-07 10:35 | 15.00271 | 121.81919 | 15174 ft | 295 kts | 270° |
| 2026-05-07 10:35 | 15.00163 | 121.79840 | 15042 ft | 288 kts | 270° |
| 2026-05-07 10:35 | 15.00054 | 121.77788 | 14911 ft | 281 kts | 270° |
| 2026-05-07 10:35 | 14.99947 | 121.75790 | 14703 ft | 278 kts | 270° |
| 2026-05-07 10:36 | 14.99838 | 121.73758 | 14084 ft | 288 kts | 270° |
| 2026-05-07 10:36 | 14.99727 | 121.71663 | 13337 ft | 298 kts | 270° |
| 2026-05-07 10:36 | 14.99611 | 121.69534 | 12839 ft | 297 kts | 269° |
| 2026-05-07 10:36 | 14.99490 | 121.67391 | 12426 ft | 294 kts | 269° |
| 2026-05-07 10:37 | 14.99373 | 121.65318 | 12008 ft | 291 kts | 269° |
| 2026-05-07 10:37 | 14.99256 | 121.63236 | 11584 ft | 289 kts | 269° |
| 2026-05-07 10:37 | 14.99140 | 121.61148 | 11310 ft | 287 kts | 269° |
| 2026-05-07 10:37 | 14.99024 | 121.59097 | 11059 ft | 284 kts | 269° |
| 2026-05-07 10:38 | 14.98909 | 121.57069 | 10812 ft | 284 kts | 268° |
| 2026-05-07 10:38 | 14.98794 | 121.55027 | 10561 ft | 283 kts | 268° |
| 2026-05-07 10:38 | 14.98680 | 121.53001 | 10311 ft | 282 kts | 268° |
| 2026-05-07 10:38 | 14.98567 | 121.50990 | 10062 ft | 280 kts | 268° |
| 2026-05-07 10:39 | 14.98452 | 121.48972 | 9865 ft | 278 kts | 267° |
| 2026-05-07 10:39 | 14.98338 | 121.46993 | 9744 ft | 279 kts | 267° |
| 2026-05-07 10:39 | 14.98222 | 121.44968 | 9618 ft | 278 kts | 267° |
| 2026-05-07 10:39 | 14.98107 | 121.42974 | 9494 ft | 278 kts | 267° |
| 2026-05-07 10:40 | 14.97990 | 121.40998 | 9370 ft | 278 kts | 267° |
| 2026-05-07 10:40 | 14.97876 | 121.39003 | 9246 ft | 277 kts | 267° |
| 2026-05-07 10:40 | 14.97763 | 121.37013 | 9121 ft | 277 kts | 266° |
| 2026-05-07 10:40 | 14.97649 | 121.35015 | 8996 ft | 276 kts | 266° |
| 2026-05-07 10:41 | 14.97536 | 121.33017 | 8871 ft | 276 kts | 266° |
| 2026-05-07 10:41 | 14.97421 | 121.31033 | 8747 ft | 275 kts | 266° |
| 2026-05-07 10:41 | 14.97307 | 121.29035 | 8724 ft | 277 kts | 266° |
| 2026-05-07 10:41 | 14.97193 | 121.27054 | 8739 ft | 276 kts | 266° |
| 2026-05-07 10:42 | 14.97073 | 121.25081 | 8737 ft | 275 kts | 266° |
| 2026-05-07 10:42 | 14.96960 | 121.23095 | 8721 ft | 275 kts | 266° |
| 2026-05-07 10:42 | 14.96846 | 121.21138 | 8582 ft | 266 kts | 266° |
| 2026-05-07 10:42 | 14.96744 | 121.19292 | 8452 ft | 255 kts | 265° |
| 2026-05-07 10:43 | 14.96638 | 121.17492 | 8320 ft | 244 kts | 266° |
| 2026-05-07 10:43 | 14.96536 | 121.15764 | 8195 ft | 241 kts | 265° |
| 2026-05-07 10:43 | 14.96436 | 121.14021 | 8077 ft | 243 kts | 265° |
| 2026-05-07 10:43 | 14.96333 | 121.12276 | 7946 ft | 242 kts | 265° |
| 2026-05-07 10:44 | 14.96244 | 121.10844 | 7840 ft | 243 kts | 266° |
| 2026-05-07 10:44 | 14.96223 | 121.10503 | 7816 ft | 244 kts | 266° |
| 2026-05-07 10:45 | 14.95848 | 121.04023 | 7356 ft | 245 kts | 265° |
| 2026-05-07 10:45 | 14.95744 | 121.02244 | 7234 ft | 245 kts | 265° |
| 2026-05-07 10:45 | 14.95640 | 121.00507 | 7113 ft | 243 kts | 265° |
| 2026-05-07 10:45 | 14.95536 | 120.98753 | 6987 ft | 242 kts | 265° |
| 2026-05-07 10:46 | 14.95433 | 120.97025 | 6863 ft | 243 kts | 265° |
| 2026-05-07 10:46 | 14.95327 | 120.95290 | 6754 ft | 242 kts | 265° |
| 2026-05-07 10:46 | 14.95223 | 120.93548 | 6610 ft | 240 kts | 265° |
| 2026-05-07 10:46 | 14.95122 | 120.91821 | 6359 ft | 240 kts | 265° |
| 2026-05-07 10:47 | 14.95020 | 120.90105 | 6118 ft | 240 kts | 265° |
| 2026-05-07 10:47 | 14.94917 | 120.88376 | 5889 ft | 240 kts | 265° |
| 2026-05-07 10:47 | 14.94817 | 120.86661 | 5716 ft | 237 kts | 265° |
| 2026-05-07 10:47 | 14.94715 | 120.84970 | 5711 ft | 240 kts | 265° |
| 2026-05-07 10:48 | 14.94441 | 120.83270 | 5706 ft | 239 kts | 249° |
| 2026-05-07 10:48 | 14.93643 | 120.81767 | 5705 ft | 239 kts | 230° |
| 2026-05-07 10:48 | 14.92403 | 120.80621 | 5591 ft | 239 kts | 211° |
| 2026-05-07 10:48 | 14.90889 | 120.79898 | 5469 ft | 239 kts | 202° |
| 2026-05-07 10:49 | 14.89344 | 120.79298 | 5346 ft | 239 kts | 201° |
| 2026-05-07 10:49 | 14.87781 | 120.78706 | 5221 ft | 238 kts | 201° |
| 2026-05-07 10:49 | 14.86191 | 120.78238 | 5096 ft | 238 kts | 192° |
| 2026-05-07 10:49 | 14.84556 | 120.77966 | 5011 ft | 238 kts | 189° |
| 2026-05-07 10:50 | 14.82939 | 120.77725 | 5008 ft | 238 kts | 189° |
| 2026-05-07 10:50 | 14.81292 | 120.77473 | 5007 ft | 237 kts | 189° |
| 2026-05-07 10:50 | 14.79672 | 120.77216 | 5007 ft | 237 kts | 189° |
| 2026-05-07 10:50 | 14.78052 | 120.76950 | 5006 ft | 236 kts | 190° |
| 2026-05-07 10:51 | 14.76432 | 120.76680 | 5006 ft | 236 kts | 190° |
| 2026-05-07 10:51 | 14.74804 | 120.76408 | 5005 ft | 236 kts | 191° |
| 2026-05-07 10:51 | 14.73168 | 120.76131 | 5007 ft | 237 kts | 190° |
| 2026-05-07 10:51 | 14.71538 | 120.75856 | 5006 ft | 237 kts | 191° |
| 2026-05-07 10:52 | 14.69938 | 120.75580 | 5006 ft | 236 kts | 189° |
| 2026-05-07 10:52 | 14.68304 | 120.75299 | 5006 ft | 235 kts | 189° |
| 2026-05-07 10:52 | 14.66687 | 120.75028 | 5006 ft | 236 kts | 190° |
| 2026-05-07 10:52 | 14.65089 | 120.74755 | 5006 ft | 236 kts | 190° |
| 2026-05-07 10:53 | 14.63453 | 120.74476 | 5006 ft | 236 kts | 189° |
| 2026-05-07 10:53 | 14.61851 | 120.74202 | 5005 ft | 236 kts | 191° |
| 2026-05-07 10:53 | 14.60227 | 120.73924 | 5006 ft | 236 kts | 191° |
| 2026-05-07 10:53 | 14.58607 | 120.73647 | 5006 ft | 236 kts | 190° |
| 2026-05-07 10:54 | 14.56980 | 120.73364 | 5006 ft | 235 kts | 189° |
| 2026-05-07 10:54 | 14.55366 | 120.73092 | 5006 ft | 235 kts | 189° |
| 2026-05-07 10:54 | 14.53755 | 120.72820 | 5006 ft | 235 kts | 189° |
| 2026-05-07 10:54 | 14.52147 | 120.72547 | 5005 ft | 234 kts | 190° |
| 2026-05-07 10:55 | 14.50580 | 120.72279 | 4994 ft | 222 kts | 191° |
| 2026-05-07 10:55 | 14.49078 | 120.72259 | 4867 ft | 216 kts | 160° |
| 2026-05-07 10:55 | 14.47847 | 120.73119 | 4668 ft | 214 kts | 137° |
| 2026-05-07 10:55 | 14.46819 | 120.74213 | 4500 ft | 211 kts | 136° |
| 2026-05-07 10:56 | 14.45807 | 120.75298 | 4329 ft | 208 kts | 137° |
| 2026-05-07 10:56 | 14.44787 | 120.76349 | 4166 ft | 204 kts | 137° |
| 2026-05-07 10:56 | 14.43786 | 120.77357 | 4005 ft | 201 kts | 137° |
| 2026-05-07 10:56 | 14.42784 | 120.78359 | 3875 ft | 195 kts | 138° |
| 2026-05-07 10:57 | 14.41821 | 120.79314 | 3705 ft | 193 kts | 139° |
| 2026-05-07 10:57 | 14.40852 | 120.80295 | 3476 ft | 194 kts | 130° |
| 2026-05-07 10:57 | 14.40288 | 120.81551 | 3236 ft | 200 kts | 96° |
| 2026-05-07 10:57 | 14.40484 | 120.83082 | 3041 ft | 201 kts | 73° |
| 2026-05-07 10:58 | 14.41051 | 120.84383 | 3011 ft | 201 kts | 63° |
| 2026-05-07 10:58 | 14.41761 | 120.85654 | 3017 ft | 198 kts | 62° |
| 2026-05-07 10:58 | 14.42450 | 120.86835 | 2950 ft | 189 kts | 62° |
| 2026-05-07 10:58 | 14.43118 | 120.88000 | 2714 ft | 188 kts | 63° |
| 2026-05-07 10:59 | 14.43761 | 120.89147 | 2472 ft | 180 kts | 63° |
| 2026-05-07 10:59 | 14.44362 | 120.90230 | 2235 ft | 173 kts | 63° |
| 2026-05-07 10:59 | 14.44948 | 120.91291 | 1998 ft | 165 kts | 63° |
| 2026-05-07 10:59 | 14.45502 | 120.92293 | 1786 ft | 159 kts | 63° |
| 2026-05-07 11:00 | 14.46048 | 120.93278 | 1594 ft | 156 kts | 64° |
| 2026-05-07 11:00 | 14.46578 | 120.94235 | 1402 ft | 153 kts | 63° |
| 2026-05-07 11:00 | 14.47110 | 120.95187 | 1201 ft | 153 kts | 63° |
| 2026-05-07 11:00 | 14.47639 | 120.96146 | 1001 ft | 153 kts | 63° |
| 2026-05-07 11:01 | 14.48174 | 120.97093 | 771 ft | 154 kts | 63° |
| 2026-05-07 11:01 | 14.48696 | 120.98050 | 577 ft | 152 kts | 63° |
| 2026-05-07 11:01 | 14.49232 | 120.98994 | 345 ft | 151 kts | 65° |
| 2026-05-07 11:01 | 14.49748 | 120.99931 | 167 ft | 150 kts | 64° |
| 2026-05-07 11:02 | 14.50234 | 121.00836 | 94 ft | 132 kts | 62° |
| 2026-05-07 11:02 | 14.50601 | 121.01493 | 92 ft | 80 kts | 58° |
| 2026-05-07 11:02 | 14.50798 | 121.01839 | 92 ft | 40 kts | 60° |
| 2026-05-07 11:02 | 14.50915 | 121.01997 | 92 ft | 13 kts | 13° |
| 2026-05-07 11:03 | 14.50945 | 121.01995 | 92 ft | 0 kts | 341° |
| 2026-05-07 11:04 | 14.50946 | 121.01994 | 92 ft | 0 kts | 339° |
| 2026-05-07 11:04 | 14.50967 | 121.01983 | 92 ft | 4 kts | 326° |
| 2026-05-07 11:04 | 14.50992 | 121.01959 | 92 ft | 9 kts | 309° |
| 2026-05-07 11:05 | 14.50999 | 121.01943 | 92 ft | 3 kts | 279° |
| 2026-05-07 11:06 | 14.50681 | 121.01342 | 92 ft | 13 kts | 240° |
| 2026-05-07 11:06 | 14.50633 | 121.01254 | 92 ft | 14 kts | 240° |
| 2026-05-07 11:07 | 14.50582 | 121.01163 | 92 ft | 14 kts | 240° |
| 2026-05-07 11:07 | 14.50531 | 121.01069 | 92 ft | 15 kts | 240° |
| 2026-05-07 11:07 | 14.50478 | 121.00974 | 92 ft | 15 kts | 240° |
| 2026-05-07 11:07 | 14.50422 | 121.00876 | 92 ft | 15 kts | 240° |
| 2026-05-07 11:08 | 14.50389 | 121.00816 | 92 ft | 4 kts | 240° |
| 2026-05-07 11:08 | 14.50377 | 121.00779 | 92 ft | 6 kts | 263° |
| 2026-05-07 11:08 | 14.50380 | 121.00729 | 92 ft | 7 kts | 278° |
| 2026-05-07 11:08 | 14.50380 | 121.00665 | 92 ft | 10 kts | 256° |
| 2026-05-07 11:09 | 14.50362 | 121.00616 | 92 ft | 11 kts | 245° |
| 2026-05-07 11:09 | 14.50349 | 121.00590 | 92 ft | 12 kts | 241° |
| 2026-05-07 11:10 | 14.50234 | 121.00293 | 92 ft | 5 kts | 315° |
| 2026-05-07 11:10 | 14.50272 | 121.00278 | 92 ft | 5 kts | 354° |
| 2026-05-07 11:10 | 14.50299 | 121.00288 | 92 ft | 3 kts | 47° |
| 2026-05-07 11:10 | 14.50317 | 121.00313 | 92 ft | 5 kts | 52° |
| 2026-05-07 11:11 | 14.50337 | 121.00339 | 92 ft | 4 kts | 51° |
| 2026-05-07 11:11 | 14.50351 | 121.00356 | 92 ft | 1 kts | 50° |
| 2026-05-07 11:11 | 14.50362 | 121.00370 | 92 ft | 3 kts | 50° |
| 2026-05-07 11:11 | 14.50367 | 121.00376 | 92 ft | 0 kts | 50° |
| 2026-05-07 11:12 | 14.50370 | 121.00379 | 92 ft | 0 kts | 50° |
| 2026-05-07 11:12 | 14.50371 | 121.00381 | 92 ft | 0 kts | 50° |